createdAt,value
2023-02-08T00:01:12.544Z,104017.38
2023-02-08T00:03:40.639Z,104016.59
2023-02-08T00:06:09.765Z,104019.06
2023-02-08T00:08:38.619Z,104019.03
2023-02-08T00:11:07.728Z,104019.81
2023-02-08T00:13:35.945Z,104014.50
2023-02-08T00:16:04.412Z,104020.63
2023-02-08T00:18:33.739Z,104012.06
2023-02-08T00:21:01.694Z,104016.25
2023-02-08T00:23:29.581Z,104011.13
2023-02-08T00:25:57.496Z,104016.41
2023-02-08T00:28:25.679Z,104022.34
2023-02-08T00:30:53.675Z,104017.91
2023-02-08T00:33:21.673Z,104015.25
2023-02-08T00:35:51.133Z,104018.81
2023-02-08T00:38:20.716Z,104018.00
2023-02-08T00:40:48.631Z,104010.16
2023-02-08T00:43:16.493Z,104012.84
2023-02-08T00:45:44.371Z,104010.88
2023-02-08T00:48:12.257Z,104009.03
2023-02-08T00:50:40.361Z,104012.69
2023-02-08T00:53:09.799Z,104009.09
2023-02-08T00:55:37.704Z,104013.53
2023-02-08T00:58:05.614Z,104018.88
2023-02-08T01:00:33.551Z,104013.53
2023-02-08T01:03:01.473Z,104016.78
2023-02-08T01:05:29.384Z,104012.66
2023-02-08T01:07:58.111Z,104018.81
2023-02-08T01:10:27.365Z,104009.94
2023-02-08T01:12:55.788Z,104016.06
2023-02-08T01:15:23.707Z,104017.88
2023-02-08T01:17:55.004Z,104016.09
2023-02-08T01:20:23.205Z,104017.78
2023-02-08T01:22:51.206Z,104018.78
2023-02-08T01:25:19.239Z,104020.41
2023-02-08T01:27:48.868Z,104023.84
2023-02-08T01:30:17.587Z,104008.09
2023-02-08T01:32:45.531Z,104017.84
2023-02-08T01:35:13.541Z,104013.53
2023-02-08T01:37:41.533Z,104011.84
2023-02-08T01:40:11.795Z,104007.22
2023-02-08T01:42:39.709Z,104015.09
2023-02-08T01:45:31.332Z,104016.91
2023-02-08T01:48:09.701Z,104008.06
2023-02-08T01:50:46.274Z,104004.16
2023-02-08T01:53:14.627Z,104004.97
2023-02-08T01:55:47.462Z,104009.28
2023-02-08T01:58:16.383Z,104007.03
2023-02-08T02:00:46.705Z,104000.59
2023-02-08T02:03:15.695Z,104020.47
2023-02-08T02:05:46.141Z,104017.97
2023-02-08T02:08:14.585Z,104010.97
2023-02-08T02:10:43.580Z,104013.19
2023-02-08T02:13:14.720Z,103999.97
2023-02-08T02:15:46.643Z,103996.09
2023-02-08T02:18:21.552Z,104008.13
2023-02-08T02:21:12.030Z,104008.09
2023-02-08T02:24:16.631Z,104003.25
2023-02-08T02:27:08.300Z,104015.69
2023-02-08T02:30:22.201Z,104013.97
2023-02-08T02:33:09.335Z,104015.13
2023-02-08T02:35:47.533Z,104022.34
2023-02-08T02:38:27.162Z,104027.19
2023-02-08T02:41:07.285Z,104025.28
2023-02-08T02:43:46.348Z,104015.50
2023-02-08T02:46:25.254Z,104027.97
2023-02-08T02:49:03.370Z,104020.25
2023-02-08T02:51:40.270Z,104021.34
2023-02-08T02:54:12.993Z,104019.94
2023-02-08T02:56:44.303Z,104023.69
2023-02-08T02:59:14.570Z,104016.03
2023-02-08T03:01:44.467Z,104023.06
2023-02-08T03:04:15.753Z,104023.31
2023-02-08T03:06:58.912Z,104024.13
2023-02-08T03:09:46.912Z,104024.78
2023-02-08T03:12:29.081Z,104026.03
2023-02-08T03:15:03.420Z,104026.78
2023-02-08T03:17:51.373Z,104023.53
2023-02-08T03:20:25.983Z,104019.94
2023-02-08T03:23:02.186Z,104022.53
2023-02-08T03:25:46.605Z,104023.56
2023-02-08T03:28:24.886Z,104021.53
2023-02-08T03:31:00.144Z,104022.06
2023-02-08T03:33:34.116Z,104029.63
2023-02-08T03:36:08.798Z,104027.94
2023-02-08T03:38:40.742Z,104026.56
2023-02-08T03:41:13.307Z,104027.84
2023-02-08T03:43:46.008Z,104020.22
2023-02-08T03:46:20.375Z,104019.75
2023-02-08T03:48:53.485Z,104021.13
2023-02-08T03:51:24.141Z,104026.06
2023-02-08T03:53:54.680Z,104025.72
2023-02-08T03:56:31.463Z,104025.84
2023-02-08T03:59:03.473Z,104025.81
2023-02-08T04:01:37.326Z,104030.59
2023-02-08T04:04:05.865Z,104024.28
2023-02-08T04:06:35.146Z,104029.63
2023-02-08T04:09:03.057Z,104022.72
2023-02-08T04:11:31.220Z,104033.09
2023-02-08T04:13:59.105Z,104021.06
2023-02-08T04:16:27.086Z,104025.69
2023-02-08T04:18:55.007Z,104021.25
2023-02-08T04:21:22.981Z,104016.63
2023-02-08T04:23:52.255Z,104020.81
2023-02-08T04:26:20.156Z,104014.72
2023-02-08T04:28:48.059Z,104028.03
2023-02-08T04:31:16.019Z,104029.81
2023-02-08T04:33:44.045Z,104022.97
2023-02-08T04:36:12.053Z,104019.31
2023-02-08T04:38:40.008Z,104023.03
2023-02-08T04:41:09.326Z,104018.94
2023-02-08T04:43:37.358Z,104020.91
2023-02-08T04:46:05.403Z,104018.25
2023-02-08T04:48:33.345Z,104013.19
2023-02-08T04:51:01.660Z,104015.09
2023-02-08T04:53:29.615Z,104017.59
2023-02-08T04:55:57.461Z,104028.78
2023-02-08T04:58:26.680Z,104022.59
2023-02-08T05:00:54.634Z,104022.03
2023-02-08T05:03:22.600Z,104022.44
2023-02-08T05:05:57.901Z,104023.91
2023-02-08T05:08:25.981Z,104027.78
2023-02-08T05:10:53.975Z,104026.94
2023-02-08T05:13:21.949Z,104024.75
2023-02-08T05:15:51.291Z,104031.00
2023-02-08T05:18:19.254Z,104019.97
2023-02-08T05:20:47.396Z,104031.97
2023-02-08T05:23:15.268Z,104018.84
2023-02-08T05:25:43.265Z,104023.91
2023-02-08T05:28:11.205Z,104028.56
2023-02-08T05:30:39.832Z,104025.25
2023-02-08T05:33:09.328Z,104031.00
2023-02-08T05:35:37.351Z,104032.16
2023-02-08T05:38:05.284Z,104034.56
2023-02-08T05:40:33.733Z,104033.13
2023-02-08T05:43:01.734Z,104030.13
2023-02-08T05:45:29.845Z,104038.34
2023-02-08T05:47:57.743Z,104045.72
2023-02-08T05:50:27.731Z,104040.72
2023-02-08T05:52:55.627Z,104035.44
2023-02-08T05:55:23.545Z,104047.09
2023-02-08T05:57:51.671Z,104048.63
2023-02-08T06:00:20.096Z,104035.34
2023-02-08T06:02:49.040Z,104045.81
2023-02-08T06:05:17.111Z,104036.56
2023-02-08T06:07:46.415Z,104050.88
2023-02-08T06:10:14.304Z,104052.53
2023-02-08T06:12:42.350Z,104049.75
2023-02-08T06:15:11.233Z,104055.06
2023-02-08T06:17:39.203Z,104058.78
2023-02-08T06:20:07.988Z,104057.81
2023-02-08T06:22:36.451Z,104068.00
2023-02-08T06:25:06.504Z,104061.88
2023-02-08T06:27:34.388Z,104067.09
2023-02-08T06:30:02.279Z,104070.09
2023-02-08T06:32:30.271Z,104061.81
2023-02-08T06:34:58.515Z,104069.78
2023-02-08T06:37:26.440Z,104067.03
2023-02-08T06:39:54.331Z,104069.66
2023-02-08T06:42:23.706Z,104065.81
2023-02-08T06:44:55.327Z,104067.56
2023-02-08T06:47:23.981Z,104076.16
2023-02-08T06:49:52.020Z,104076.50
2023-02-08T06:52:20.752Z,104075.91
2023-02-08T06:54:48.661Z,104065.91
2023-02-08T06:57:16.653Z,104069.59
2023-02-08T06:59:46.802Z,104068.47
2023-02-08T07:02:17.121Z,104071.38
2023-02-08T07:04:45.624Z,104069.69
2023-02-08T07:07:13.772Z,104070.16
2023-02-08T07:09:42.344Z,104069.94
2023-02-08T07:12:11.102Z,104066.84
2023-02-08T07:14:41.085Z,104075.66
2023-02-08T07:17:10.526Z,104069.91
2023-02-08T07:19:38.604Z,104070.13
2023-02-08T07:22:09.045Z,104058.38
2023-02-08T07:24:38.129Z,104053.75
2023-02-08T07:27:07.144Z,104059.19
2023-02-08T07:29:35.743Z,104063.56
2023-02-08T07:32:05.301Z,104066.38
2023-02-08T07:34:37.009Z,104062.13
2023-02-08T07:37:05.674Z,104067.03
2023-02-08T07:39:33.646Z,104063.91
2023-02-08T07:42:01.725Z,104066.72
2023-02-08T07:44:35.781Z,104079.28
2023-02-08T07:47:03.731Z,104077.16
2023-02-08T07:49:31.633Z,104078.22
2023-02-08T07:52:01.643Z,104087.63
2023-02-08T07:54:29.933Z,104089.59
2023-02-08T07:56:57.991Z,104080.94
2023-02-08T07:59:26.033Z,104090.72
2023-02-08T08:01:54.003Z,104097.59
2023-02-08T08:04:22.062Z,104094.19
2023-02-08T08:06:51.516Z,104100.06
2023-02-08T08:09:21.339Z,104098.28
2023-02-08T08:11:49.324Z,104093.50
2023-02-08T08:14:17.155Z,104111.22
2023-02-08T08:16:45.059Z,104112.00
2023-02-08T08:19:12.951Z,104105.19
2023-02-08T08:21:40.889Z,104098.03
2023-02-08T08:24:08.949Z,104100.97
2023-02-08T08:26:38.247Z,104107.97
2023-02-08T08:29:07.137Z,104103.75
2023-02-08T08:31:35.083Z,104110.94
2023-02-08T08:34:03.100Z,104102.47
2023-02-08T08:36:31.648Z,104095.72
2023-02-08T08:38:59.535Z,104105.28
2023-02-08T08:41:28.548Z,104094.28
2023-02-08T08:43:57.910Z,104094.50
2023-02-08T08:46:25.839Z,104091.50
2023-02-08T08:48:53.726Z,104078.41
2023-02-08T08:51:21.721Z,104079.00
2023-02-08T08:53:49.803Z,104079.66
2023-02-08T08:56:17.776Z,104086.44
2023-02-08T08:58:45.665Z,104076.28
2023-02-08T09:01:15.326Z,104077.41
2023-02-08T09:03:43.270Z,104078.25
2023-02-08T09:06:11.480Z,104070.59
2023-02-08T09:08:39.496Z,104068.38
2023-02-08T09:11:09.459Z,104063.09
2023-02-08T09:13:37.447Z,104058.69
2023-02-08T09:16:10.316Z,104067.28
2023-02-08T09:18:39.914Z,104044.91
2023-02-08T09:21:08.377Z,104049.75
2023-02-08T09:23:36.863Z,104055.28
2023-02-08T09:26:05.264Z,104058.78
2023-02-08T09:28:33.420Z,104064.56
2023-02-08T09:31:07.914Z,104064.53
2023-02-08T09:33:35.887Z,104073.63
2023-02-08T09:36:06.336Z,104076.78
2023-02-08T09:38:34.848Z,104072.69
2023-02-08T09:41:14.434Z,104071.53
2023-02-08T09:43:54.039Z,104075.44
2023-02-08T09:46:23.862Z,104072.59
2023-02-08T09:48:54.193Z,104068.00
2023-02-08T09:51:31.241Z,104060.94
2023-02-08T09:54:04.473Z,104059.50
2023-02-08T09:56:37.082Z,104054.75
2023-02-08T09:59:06.279Z,104055.75
2023-02-08T10:01:37.127Z,104049.06
2023-02-08T10:04:10.044Z,104044.34
2023-02-08T10:06:39.572Z,104031.03
2023-02-08T10:09:13.983Z,104022.56
2023-02-08T10:11:56.751Z,104029.81
2023-02-08T10:14:53.535Z,104016.66
2023-02-08T10:18:00.114Z,104015.41
2023-02-08T10:20:47.608Z,104004.94
2023-02-08T10:23:30.207Z,104003.22
2023-02-08T10:26:09.984Z,103997.78
2023-02-08T10:28:58.895Z,103992.75
2023-02-08T10:31:38.813Z,104000.66
2023-02-08T10:34:19.859Z,104000.38
2023-02-08T10:36:48.124Z,103982.22
2023-02-08T10:39:19.872Z,103990.00
2023-02-08T10:41:48.571Z,103982.13
2023-02-08T10:44:28.230Z,103980.16
2023-02-08T10:47:09.657Z,103979.25
2023-02-08T10:49:46.030Z,103982.41
2023-02-08T10:52:14.148Z,103969.88
2023-02-08T10:54:43.421Z,103979.53
2023-02-08T10:57:17.757Z,103979.31
2023-02-08T10:59:50.645Z,103979.06
2023-02-08T11:02:24.146Z,103965.44
2023-02-08T11:05:00.168Z,103959.25
2023-02-08T11:07:28.291Z,103947.72
2023-02-08T11:10:16.308Z,103947.75
2023-02-08T11:12:54.941Z,103946.84
2023-02-08T11:15:25.569Z,103938.06
2023-02-08T11:17:59.711Z,103945.94
2023-02-08T11:20:33.170Z,103946.75
2023-02-08T11:23:01.812Z,103940.66
2023-02-08T11:25:36.997Z,103946.69
2023-02-08T11:28:05.849Z,103938.63
2023-02-08T11:30:34.554Z,103935.97
2023-02-08T11:33:23.289Z,103939.78
2023-02-08T11:35:57.874Z,103947.69
2023-02-08T11:38:28.380Z,103934.53
2023-02-08T11:41:00.565Z,103928.22
2023-02-08T11:43:31.077Z,103930.91
2023-02-08T11:46:00.850Z,103930.84
2023-02-08T11:48:39.017Z,103930.66
2023-02-08T11:51:07.729Z,103926.97
2023-02-08T11:53:40.741Z,103919.03
2023-02-08T11:56:20.763Z,103926.16
2023-02-08T11:59:07.738Z,103925.06
2023-02-08T12:01:37.852Z,103919.28
2023-02-08T12:04:08.639Z,103921.03
2023-02-08T12:06:50.320Z,103923.34
2023-02-08T12:09:31.585Z,103920.50
2023-02-08T12:12:10.918Z,103920.59
2023-02-08T12:14:50.747Z,103902.47
2023-02-08T12:17:47.791Z,103920.94
2023-02-08T12:20:30.141Z,103920.91
2023-02-08T12:23:11.183Z,103934.00
2023-02-08T12:25:44.154Z,103934.38
2023-02-08T12:28:24.063Z,103942.16
2023-02-08T12:31:03.023Z,103948.69
2023-02-08T12:33:42.135Z,103941.53
2023-02-08T12:36:25.577Z,103938.88
2023-02-08T12:39:37.536Z,103942.41
2023-02-08T12:42:24.431Z,103942.22
2023-02-08T12:45:17.485Z,103939.56
2023-02-08T12:48:05.141Z,103936.22
2023-02-08T12:50:42.075Z,103922.94
2023-02-08T12:53:21.739Z,103919.28
2023-02-08T12:55:52.344Z,103917.31
2023-02-08T12:58:29.748Z,103921.16
2023-02-08T13:01:06.585Z,103918.53
2023-02-08T13:03:46.282Z,103919.22
2023-02-08T13:06:19.460Z,103924.75
2023-02-08T13:08:49.286Z,103904.47
2023-02-08T13:11:25.413Z,103898.94
2023-02-08T13:13:59.117Z,103905.31
2023-02-08T13:16:34.042Z,103896.34
2023-02-08T13:19:19.608Z,103893.75
2023-02-08T13:21:47.831Z,103898.19
2023-02-08T13:24:30.459Z,103892.03
2023-02-08T13:26:58.379Z,103884.97
2023-02-08T13:29:28.336Z,103888.34
2023-02-08T13:32:01.848Z,103880.50
2023-02-08T13:34:34.583Z,103873.28
2023-02-08T13:37:13.496Z,103875.13
2023-02-08T13:39:49.883Z,103867.22
2023-02-08T13:42:24.375Z,103869.94
2023-02-08T13:44:55.140Z,103876.06
2023-02-08T13:47:28.449Z,103872.63
2023-02-08T13:50:00.031Z,103869.88
2023-02-08T13:52:50.518Z,103863.72
2023-02-08T13:55:42.516Z,103863.69
2023-02-08T13:58:39.484Z,103858.44
2023-02-08T14:01:21.329Z,103868.13
2023-02-08T14:04:28.237Z,103869.09
2023-02-08T14:07:01.228Z,103866.44
2023-02-08T14:09:40.373Z,103854.09
2023-02-08T14:12:17.553Z,103845.19
2023-02-08T14:15:06.421Z,103856.78
2023-02-08T14:17:35.218Z,103852.38
2023-02-08T14:20:07.785Z,103855.84
2023-02-08T14:22:39.914Z,103855.94
2023-02-08T14:25:18.166Z,103851.41
2023-02-08T14:27:53.525Z,103846.19
2023-02-08T14:30:27.490Z,103841.81
2023-02-08T14:33:12.272Z,103838.28
2023-02-08T14:35:51.458Z,103836.47
2023-02-08T14:38:51.366Z,103825.78
2023-02-08T14:41:48.715Z,103825.78
2023-02-08T14:44:49.127Z,103831.22
2023-02-08T14:48:07.969Z,103824.13
2023-02-08T14:50:50.329Z,103823.19
2023-02-08T14:53:28.669Z,103823.91
2023-02-08T14:56:03.665Z,103819.72
2023-02-08T14:58:35.895Z,103829.50
2023-02-08T15:01:08.897Z,103812.69
2023-02-08T15:03:37.356Z,103810.97
2023-02-08T15:06:35.791Z,103831.25
2023-02-08T15:09:05.633Z,103818.88
2023-02-08T15:11:36.143Z,103813.53
2023-02-08T15:14:06.026Z,103809.13
2023-02-08T15:16:37.620Z,103807.38
2023-02-08T15:19:08.576Z,103799.38
2023-02-08T15:21:38.796Z,103800.34
2023-02-08T15:24:15.522Z,103789.81
2023-02-08T15:26:48.150Z,103790.69
2023-02-08T15:29:24.606Z,103787.09
2023-02-08T15:31:56.020Z,103790.66
2023-02-08T15:34:27.580Z,103784.50
2023-02-08T15:36:57.888Z,103774.81
2023-02-08T15:39:38.564Z,103773.84
2023-02-08T15:42:07.401Z,103780.09
2023-02-08T15:44:35.892Z,103776.56
2023-02-08T15:47:10.829Z,103766.00
2023-02-08T15:49:41.863Z,103763.28
2023-02-08T15:52:17.315Z,103765.09
2023-02-08T15:54:46.327Z,103780.09
2023-02-08T15:57:23.532Z,103768.63
2023-02-08T15:59:51.727Z,103758.94
2023-02-08T16:02:25.075Z,103754.53
2023-02-08T16:04:53.130Z,103767.75
2023-02-08T16:07:28.272Z,103765.13
2023-02-08T16:09:58.239Z,103772.16
2023-02-08T16:12:29.328Z,103764.22
2023-02-08T16:14:57.866Z,103770.38
2023-02-08T16:17:34.390Z,103762.44
2023-02-08T16:20:02.728Z,103767.69
2023-02-08T16:22:33.874Z,103761.56
2023-02-08T16:25:23.660Z,103764.22
2023-02-08T16:27:52.061Z,103766.00
2023-02-08T16:30:21.913Z,103771.25
2023-02-08T16:32:50.531Z,103769.50
2023-02-08T16:35:24.666Z,103769.50
2023-02-08T16:38:00.616Z,103771.28
2023-02-08T16:40:51.684Z,103762.44
2023-02-08T16:43:24.842Z,103771.22
2023-02-08T16:46:11.146Z,103762.44
2023-02-08T16:48:41.032Z,103763.34
2023-02-08T16:51:15.711Z,103771.28
2023-02-08T16:53:47.002Z,103762.47
2023-02-08T16:56:15.082Z,103765.06
2023-02-08T16:58:43.261Z,103769.38
2023-02-08T17:01:13.340Z,103757.09
2023-02-08T17:03:41.388Z,103759.81
2023-02-08T17:06:21.228Z,103758.88
2023-02-08T17:08:50.463Z,103753.59
2023-02-08T17:11:18.358Z,103757.81
2023-02-08T17:13:46.243Z,103764.09
2023-02-08T17:16:19.107Z,103751.78
2023-02-08T17:18:47.919Z,103753.44
2023-02-08T17:21:16.708Z,103754.44
2023-02-08T17:23:44.679Z,103750.03
2023-02-08T17:26:17.149Z,103750.84
2023-02-08T17:28:45.212Z,103762.34
2023-02-08T17:31:14.656Z,103748.28
2023-02-08T17:33:43.188Z,103748.25
2023-02-08T17:36:13.214Z,103752.66
2023-02-08T17:38:43.000Z,103742.13
2023-02-08T17:41:16.281Z,103737.75
2023-02-08T17:43:44.378Z,103738.63
2023-02-08T17:46:14.003Z,103736.78
2023-02-08T17:48:41.990Z,103741.13
2023-02-08T17:51:11.234Z,103735.88
2023-02-08T17:53:40.898Z,103735.88
2023-02-08T17:56:11.266Z,103726.22
2023-02-08T17:58:40.681Z,103720.03
2023-02-08T18:01:10.200Z,103725.28
2023-02-08T18:03:38.373Z,103714.78
2023-02-08T18:06:07.665Z,103723.47
2023-02-08T18:08:37.388Z,103723.47
2023-02-08T18:11:06.651Z,103723.47
2023-02-08T18:13:36.017Z,103713.81
2023-02-08T18:16:09.886Z,103719.06
2023-02-08T18:18:38.389Z,103714.72
2023-02-08T18:21:11.375Z,103710.38
2023-02-08T18:23:39.635Z,103706.81
2023-02-08T18:26:08.750Z,103714.63
2023-02-08T18:28:37.382Z,103716.41
2023-02-08T18:31:06.669Z,103698.81
2023-02-08T18:33:36.728Z,103703.22
2023-02-08T18:36:06.959Z,103695.38
2023-02-08T18:38:35.023Z,103691.81
2023-02-08T18:41:02.883Z,103686.53
2023-02-08T18:43:30.843Z,103690.03
2023-02-08T18:46:03.029Z,103692.63
2023-02-08T18:48:31.510Z,103688.94
2023-02-08T18:51:02.880Z,103675.06
2023-02-08T18:53:31.954Z,103673.31
2023-02-08T18:56:01.768Z,103670.53
2023-02-08T18:58:30.293Z,103663.56
2023-02-08T19:01:06.959Z,103669.69
2023-02-08T19:03:35.768Z,103672.34
2023-02-08T19:06:06.953Z,103667.94
2023-02-08T19:08:37.420Z,103652.13
2023-02-08T19:11:06.392Z,103651.16
2023-02-08T19:13:35.526Z,103647.75
2023-02-08T19:16:03.453Z,103644.84
2023-02-08T19:18:31.360Z,103645.88
2023-02-08T19:21:06.039Z,103644.91
2023-02-08T19:23:34.164Z,103631.78
2023-02-08T19:26:03.550Z,103637.91
2023-02-08T19:28:33.610Z,103628.25
2023-02-08T19:31:06.418Z,103633.44
2023-02-08T19:33:34.393Z,103630.88
2023-02-08T19:36:09.463Z,103628.94
2023-02-08T19:38:38.175Z,103629.88
2023-02-08T19:41:07.146Z,103632.47
2023-02-08T19:43:35.771Z,103627.09
2023-02-08T19:46:09.192Z,103619.28
2023-02-08T19:48:37.158Z,103628.06
2023-02-08T19:51:05.607Z,103626.41
2023-02-08T19:53:35.035Z,103618.44
2023-02-08T19:56:05.261Z,103614.09
2023-02-08T19:58:34.012Z,103611.34
2023-02-08T20:01:06.223Z,103601.63
2023-02-08T20:03:34.210Z,103599.91
2023-02-08T20:06:02.230Z,103594.63
2023-02-08T20:08:30.607Z,103603.22
2023-02-08T20:10:59.845Z,103598.22
2023-02-08T20:13:27.787Z,103593.59
2023-02-08T20:16:00.739Z,103599.00
2023-02-08T20:18:28.687Z,103594.66
2023-02-08T20:21:01.449Z,103600.63
2023-02-08T20:23:30.113Z,103593.66
2023-02-08T20:26:21.138Z,103605.25
2023-02-08T20:28:51.846Z,103600.84
2023-02-08T20:31:23.264Z,103601.59
2023-02-08T20:33:52.073Z,103595.47
2023-02-08T20:36:21.840Z,103594.34
2023-02-08T20:38:51.571Z,103597.75
2023-02-08T20:41:22.734Z,103590.69
2023-02-08T20:43:50.928Z,103599.41
2023-02-08T20:46:22.234Z,103599.59
2023-02-08T20:48:51.048Z,103598.81
2023-02-08T20:51:21.591Z,103597.63
2023-02-08T20:53:50.845Z,103577.56
2023-02-08T20:56:22.319Z,103578.38
2023-02-08T20:58:50.768Z,103580.19
2023-02-08T21:01:20.956Z,103578.53
2023-02-08T21:03:49.530Z,103574.00
2023-02-08T21:06:19.390Z,103561.91
2023-02-08T21:08:51.607Z,103571.44
2023-02-08T21:11:22.218Z,103561.91
2023-02-08T21:13:50.943Z,103570.47
2023-02-08T21:16:19.808Z,103570.53
2023-02-08T21:18:48.123Z,103565.19
2023-02-08T21:21:16.515Z,103564.50
2023-02-08T21:23:45.040Z,103560.59
2023-02-08T21:26:14.924Z,103547.72
2023-02-08T21:28:44.453Z,103543.38
2023-02-08T21:31:15.750Z,103547.75
2023-02-08T21:33:44.899Z,103552.59
2023-02-08T21:36:14.602Z,103547.63
2023-02-08T21:38:43.373Z,103537.78
2023-02-08T21:41:14.219Z,103536.13
2023-02-08T21:43:42.593Z,103539.81
2023-02-08T21:46:11.940Z,103537.97
2023-02-08T21:48:57.507Z,103523.88
2023-02-08T21:51:44.283Z,103522.88
2023-02-08T21:54:30.953Z,103529.69
2023-02-08T21:57:00.058Z,103514.06
2023-02-08T21:59:28.853Z,103508.09
2023-02-08T22:01:58.131Z,103501.03
2023-02-08T22:04:25.995Z,103504.41
2023-02-08T22:06:52.931Z,103499.16
2023-02-08T22:09:21.924Z,103498.22
2023-02-08T22:11:50.274Z,103497.47
2023-02-08T22:14:18.230Z,103499.34
2023-02-08T22:16:46.125Z,103496.72
2023-02-08T22:19:15.633Z,103494.84
2023-02-08T22:21:43.561Z,103498.97
2023-02-08T22:24:11.564Z,103491.22
2023-02-08T22:26:39.473Z,103495.47
2023-02-08T22:29:07.400Z,103496.53
2023-02-08T22:31:35.406Z,103491.44
2023-02-08T22:34:03.622Z,103494.00
2023-02-08T22:36:32.935Z,103483.56
2023-02-08T22:39:00.851Z,103485.31
2023-02-08T22:41:28.767Z,103483.38
2023-02-08T22:43:56.796Z,103477.28
2023-02-08T22:46:24.785Z,103483.28
2023-02-08T22:48:52.856Z,103482.44
2023-02-08T22:51:21.625Z,103465.72
2023-02-08T22:53:51.003Z,103464.06
2023-02-08T22:56:19.982Z,103470.72
2023-02-08T22:58:47.966Z,103468.16
2023-02-08T23:01:18.063Z,103457.72
2023-02-08T23:03:46.162Z,103457.88
2023-02-08T23:06:17.688Z,103451.81
2023-02-08T23:08:45.795Z,103458.72
2023-02-08T23:11:16.234Z,103459.56
2023-02-08T23:13:48.000Z,103456.78
2023-02-08T23:16:18.397Z,103456.94
2023-02-08T23:18:46.811Z,103456.75
2023-02-08T23:21:18.249Z,103460.25
2023-02-08T23:23:47.863Z,103456.84
2023-02-08T23:26:19.168Z,103463.00
2023-02-08T23:28:47.559Z,103456.56
2023-02-08T23:31:16.351Z,103460.22
2023-02-08T23:33:44.402Z,103462.66
2023-02-08T23:36:14.643Z,103448.88
2023-02-08T23:38:43.697Z,103446.00
2023-02-08T23:41:14.300Z,103449.69
2023-02-08T23:43:44.497Z,103446.13
2023-02-08T23:46:15.696Z,103437.44
2023-02-08T23:48:43.861Z,103441.50
2023-02-08T23:51:11.863Z,103440.66
2023-02-08T23:53:39.773Z,103442.34
2023-02-08T23:56:14.162Z,103438.25
2023-02-08T23:58:43.873Z,103445.34
